Time;durP1;ratioP1;P1;durP2;ratioP2;P2;SDS_P1;SDS_P2;PMS_P1;PMS_P2;Temp;Humidity;BMP_temperature;BMP_pressure;BME280_temperature;BME280_humidity;BME280_pressure;Samples;Min_cycle;Max_cycle;Signal;HPM_P1;HPM_P2
2023/05/16 00:00:05;;;;;;;372.20;173.80;;;;;;;14.77;100.00;99414.72;278714;35;9943;-75
2023/05/16 00:00:16;;;;;;;377.58;174.55;;;;;;;14.76;100.00;99418.28;277167;35;10333;-75
2023/05/16 00:00:27;;;;;;;380.17;178.30;;;;;;;14.76;100.00;99418.28;276236;35;1627;-75
2023/05/16 00:00:38;;;;;;;376.27;177.95;;;;;;;14.76;100.00;99407.75;272375;35;11516;-75
2023/05/16 00:02:22;;;;;;;364.29;163.63;;;;;;;14.79;100.00;99414.63;2497201;27;20491;-74
2023/05/16 00:02:32;;;;;;;371.90;172.50;;;;;;;14.79;100.00;99409.34;352856;28;1241;-75
2023/05/16 00:02:43;;;;;;;373.40;173.25;;;;;;;14.78;100.00;99412.94;349761;28;3907;-74
2023/05/16 00:02:53;;;;;;;378.10;177.67;;;;;;;14.76;100.00;99413.03;348394;28;3903;-74
2023/05/16 00:03:05;;;;;;;378.98;177.20;;;;;;;14.75;100.00;99403.44;348817;28;3922;-74
2023/05/16 00:03:15;;;;;;;384.92;183.23;;;;;;;14.76;100.00;99415.66;351612;28;1423;-74
2023/05/16 00:03:26;;;;;;;383.65;182.18;;;;;;;14.77;100.00;99416.50;350320;28;788;-74
2023/05/16 00:03:36;;;;;;;381.63;181.03;;;;;;;14.72;100.00;99406.28;350034;28;1418;-74
2023/05/16 00:03:47;;;;;;;375.13;177.40;;;;;;;14.69;100.00;99411.72;350190;28;943;-75
2023/05/16 00:03:57;;;;;;;373.50;177.60;;;;;;;14.69;100.00;99411.72;347575;28;1098;-75
2023/05/16 00:04:08;;;;;;;371.77;177.80;;;;;;;14.67;100.00;99413.63;350136;28;1204;-73
2023/05/16 00:04:19;;;;;;;368.73;176.33;;;;;;;14.67;100.00;99408.34;350253;28;855;-74
2023/05/16 00:04:29;;;;;;;366.90;172.60;;;;;;;14.65;100.00;99410.22;348748;28;864;-74
2023/05/16 00:04:39;;;;;;;365.88;170.43;;;;;;;14.66;100.00;99417.19;350456;28;1777;-74
2023/05/16 00:04:50;;;;;;;368.57;170.03;;;;;;;14.67;100.00;99408.34;350222;28;1269;-74
2023/05/16 00:05:01;;;;;;;372.15;170.65;;;;;;;14.70;100.00;99413.44;348861;28;880;-74
2023/05/16 00:05:14;;;;;;;375.27;169.18;;;;;;;14.71;100.00;99414.28;348666;28;1654;-74
2023/05/16 00:05:25;;;;;;;373.23;170.70;;;;;;;14.71;100.00;99419.53;347491;28;1825;-74
2023/05/16 00:05:36;;;;;;;372.10;172.48;;;;;;;14.70;100.00;99408.16;347433;28;1380;-74
2023/05/16 00:05:47;;;;;;;373.15;173.57;;;;;;;14.70;100.00;99410.78;346077;28;943;-74
2023/05/16 00:05:58;;;;;;;371.58;172.48;;;;;;;14.71;100.00;99412.50;347500;28;1963;-74
2023/05/16 00:06:08;;;;;;;370.60;172.70;;;;;;;14.70;100.00;99405.53;346066;28;1186;-74
2023/05/16 00:06:19;;;;;;;375.43;175.47;;;;;;;14.71;100.00;99412.50;346560;28;1380;-74
2023/05/16 00:06:30;;;;;;;379.65;177.25;;;;;;;14.72;100.00;99411.53;345504;28;878;-74
2023/05/16 00:06:41;;;;;;;381.42;176.18;;;;;;;14.72;100.00;99418.59;343314;28;1278;-74
2023/05/16 00:06:51;;;;;;;376.85;174.35;;;;;;;14.72;100.00;99411.53;345678;28;1828;-74
2023/05/16 00:07:02;;;;;;;375.40;173.97;;;;;;;14.71;100.00;99416.91;346227;28;1836;-75
2023/05/16 00:07:13;;;;;;;373.70;175.20;;;;;;;14.73;100.00;99417.66;343562;28;836;-74
2023/05/16 00:07:23;;;;;;;374.98;174.32;;;;;;;14.73;100.00;99415.03;344475;28;1234;-74
2023/05/16 00:07:34;;;;;;;376.53;173.87;;;;;;;14.73;100.00;99410.56;347393;28;954;-74
2023/05/16 00:07:45;;;;;;;377.13;172.10;;;;;;;14.73;100.00;99423.75;345939;28;959;-74
2023/05/16 00:07:55;;;;;;;373.52;174.10;;;;;;;14.72;100.00;99414.19;344725;28;1892;-74
2023/05/16 00:08:05;;;;;;;369.27;175.47;;;;;;;14.74;100.00;99414.06;344628;28;1371;-74
2023/05/16 00:08:16;;;;;;;365.98;175.80;;;;;;;14.72;100.00;99411.53;343920;28;1201;-74
2023/05/16 00:08:27;;;;;;;372.08;177.50;;;;;;;14.74;100.00;99414.91;345672;28;1435;-74
2023/05/16 00:08:37;;;;;;;377.45;178.43;;;;;;;14.74;100.00;99420.19;343480;28;1462;-74
2023/05/16 00:08:48;;;;;;;379.00;175.93;;;;;;;14.74;100.00;99412.28;343372;28;1434;-74
2023/05/16 00:08:59;;;;;;;372.38;172.18;;;;;;;14.74;100.00;99414.91;342875;28;1752;-74
2023/05/16 00:09:09;;;;;;;373.17;172.77;;;;;;;14.73;100.00;99413.22;341988;28;1210;-74
2023/05/16 00:09:20;;;;;;;378.88;176.95;;;;;;;14.75;100.00;99410.47;343074;28;864;-74
2023/05/16 00:09:30;;;;;;;382.83;180.43;;;;;;;14.75;100.00;99411.34;345678;28;1270;-74
2023/05/16 00:09:41;;;;;;;381.23;179.70;;;;;;;14.74;100.00;99409.63;344636;28;1176;-74
2023/05/16 00:09:51;;;;;;;377.42;178.95;;;;;;;14.68;100.00;99398.66;340799;29;841;-74
2023/05/16 00:10:02;;;;;;;377.93;176.60;;;;;;;14.72;100.00;99408.91;340152;29;1237;-74
2023/05/16 00:10:12;;;;;;;379.73;177.10;;;;;;;14.73;100.00;99407.13;343479;28;1564;-74
2023/05/16 00:10:23;;;;;;;384.43;178.40;;;;;;;14.72;100.00;99410.69;343181;28;1454;-73
2023/05/16 00:10:33;;;;;;;382.92;179.15;;;;;;;14.74;100.00;99414.06;342989;28;1354;-74
2023/05/16 00:10:44;;;;;;;382.47;178.83;;;;;;;14.74;100.00;99412.28;343720;28;1450;-74
2023/05/16 00:10:54;;;;;;;378.10;176.10;;;;;;;14.75;100.00;99410.47;338185;29;778;-73
2023/05/16 00:11:05;;;;;;;379.17;176.03;;;;;;;14.73;100.00;99413.22;336394;29;1789;-73
2023/05/16 00:11:16;;;;;;;382.40;177.52;;;;;;;14.74;100.00;99409.63;336531;29;1929;-73
2023/05/16 00:11:26;;;;;;;380.92;178.00;;;;;;;14.74;100.00;99414.91;335640;29;996;-74
2023/05/16 00:11:37;;;;;;;378.13;177.77;;;;;;;14.75;100.00;99411.34;339572;29;803;-74
2023/05/16 00:11:47;;;;;;;374.40;175.75;;;;;;;14.76;100.00;99418.28;335396;29;913;-74
2023/05/16 00:11:58;;;;;;;376.47;175.67;;;;;;;14.76;100.00;99412.19;335934;29;3449;-74
2023/05/16 00:12:09;;;;;;;375.92;174.30;;;;;;;14.74;100.00;99414.06;332498;29;2478;-74
2023/05/16 00:12:21;;;;;;;377.50;176.55;;;;;;;14.73;100.00;99413.22;333500;29;2477;-74
2023/05/16 00:12:32;;;;;;;380.42;178.27;;;;;;;14.73;100.00;99413.22;330784;29;2687;-74
2023/05/16 00:12:43;;;;;;;381.17;179.37;;;;;;;14.73;100.00;99418.47;327887;29;4265;-73
2023/05/16 00:12:53;;;;;;;381.70;179.57;;;;;;;14.73;100.00;99418.47;330424;29;923;-73
2023/05/16 00:13:06;;;;;;;378.37;178.03;;;;;;;14.73;100.00;99415.03;328214;29;2084;-73
2023/05/16 00:13:21;;;;;;;372.63;173.52;;;;;;;14.73;100.00;99418.47;330308;29;2239;-74
2023/05/16 00:13:31;;;;;;;372.75;169.35;;;;;;;14.73;100.00;99417.66;331082;29;1681;-74
2023/05/16 00:13:41;;;;;;;372.15;168.18;;;;;;;14.73;100.00;99417.66;327788;30;1772;-75
2023/05/16 00:13:52;;;;;;;374.50;170.60;;;;;;;14.71;100.00;99415.13;328845;30;1717;-74
2023/05/16 00:14:02;;;;;;;373.47;172.50;;;;;;;14.71;100.00;99412.50;323267;30;1508;-74
2023/05/16 00:14:14;;;;;;;373.63;171.15;;;;;;;14.68;100.00;99410.03;322801;30;1906;-74
2023/05/16 00:14:25;;;;;;;373.55;170.75;;;;;;;14.72;100.00;99416.81;320774;30;1287;-74
2023/05/16 00:14:36;;;;;;;370.30;171.30;;;;;;;14.71;100.00;99414.28;319308;30;2348;-74
2023/05/16 00:14:46;;;;;;;369.93;175.03;;;;;;;14.71;100.00;99415.13;320393;30;2140;-74
2023/05/16 00:14:58;;;;;;;371.87;173.10;;;;;;;14.72;100.00;99410.69;321377;30;2350;-74
2023/05/16 00:15:11;;;;;;;374.50;172.80;;;;;;;14.73;100.00;99412.41;321770;30;1381;-75
2023/05/16 00:15:23;;;;;;;373.92;170.20;;;;;;;14.70;100.00;99413.44;315131;31;1837;-74
2023/05/16 00:15:34;;;;;;;372.15;173.75;;;;;;;14.71;100.00;99412.50;315955;31;2834;-75
2023/05/16 00:15:46;;;;;;;371.52;175.27;;;;;;;14.72;100.00;99416.81;313549;31;2110;-74
2023/05/16 00:15:56;;;;;;;369.48;174.02;;;;;;;14.71;100.00;99409.84;312646;31;1565;-75
2023/05/16 00:16:07;;;;;;;375.03;177.60;;;;;;;14.71;100.00;99411.63;311514;31;2086;-76
2023/05/16 00:16:20;;;;;;;376.92;177.20;;;;;;;14.73;100.00;99412.41;311776;31;2211;-75
2023/05/16 00:16:31;;;;;;;376.42;174.98;;;;;;;14.72;100.00;99413.34;310223;31;2497;-75
2023/05/16 00:16:42;;;;;;;371.80;171.82;;;;;;;14.72;100.00;99416.81;308757;31;3374;-75
2023/05/16 00:16:52;;;;;;;374.67;172.02;;;;;;;14.72;100.00;99410.69;306361;32;816;-75
2023/05/16 00:17:10;;;;;;;373.42;172.00;;;;;;;14.71;100.00;99409.00;304138;32;3422;-75
2023/05/16 00:17:20;;;;;;;372.92;172.20;;;;;;;14.72;100.00;99408.91;307281;32;3239;-75
2023/05/16 00:17:31;;;;;;;375.00;172.98;;;;;;;14.72;100.00;99408.06;307396;32;3749;-75
2023/05/16 00:17:45;;;;;;;373.70;173.53;;;;;;;14.73;100.00;99407.13;306031;32;3514;-75
2023/05/16 00:17:58;;;;;;;373.35;172.20;;;;;;;14.74;100.00;99407.00;301141;32;884;-75
2023/05/16 00:18:13;;;;;;;371.73;170.50;;;;;;;14.72;100.00;99402.81;306299;32;917;-75
2023/05/16 00:18:24;;;;;;;371.13;170.10;;;;;;;14.72;100.00;99405.44;302930;32;1203;-75
2023/05/16 00:18:38;;;;;;;370.65;171.88;;;;;;;14.73;100.00;99405.31;305423;32;2897;-75
2023/05/16 00:18:49;;;;;;;370.98;172.23;;;;;;;14.74;100.00;99409.63;302642;32;3617;-76
2023/05/16 00:19:01;;;;;;;371.95;174.63;;;;;;;14.73;100.00;99402.69;305523;31;4550;-75
2023/05/16 00:19:12;;;;;;;375.00;176.57;;;;;;;14.75;100.00;99406.06;309478;31;4997;-75
2023/05/16 00:19:22;;;;;;;375.48;174.55;;;;;;;14.75;100.00;99397.31;307182;32;1986;-75
2023/05/16 00:19:34;;;;;;;374.47;175.40;;;;;;;14.76;100.00;99399.84;303418;32;4080;-74
2023/05/16 00:19:47;;;;;;;373.13;174.63;;;;;;;14.75;100.00;99402.59;303930;32;4556;-74
2023/05/16 00:19:59;;;;;;;372.38;172.55;;;;;;;14.75;100.00;99400.78;306083;32;4370;-74
2023/05/16 00:20:09;;;;;;;372.77;172.82;;;;;;;14.76;100.00;99406.91;307438;32;851;-74
2023/05/16 00:20:22;;;;;;;382.90;176.23;;;;;;;14.75;100.00;99392.88;304505;32;3520;-74
2023/05/16 00:20:33;;;;;;;386.05;177.63;;;;;;;14.75;100.00;99400.78;301947;32;2703;-74
2023/05/16 00:20:44;;;;;;;385.10;177.63;;;;;;;14.73;100.00;99402.69;301010;32;4254;-74
2023/05/16 00:20:55;;;;;;;378.30;175.95;;;;;;;14.70;100.00;99400.25;299051;33;869;-74
2023/05/16 00:21:06;;;;;;;376.80;175.48;;;;;;;14.69;100.00;99400.34;295833;33;5562;-74
2023/05/16 00:21:16;;;;;;;377.40;177.57;;;;;;;14.64;100.00;99400.63;296023;32;6608;-74
2023/05/16 00:21:27;;;;;;;378.17;177.30;;;;;;;14.62;100.00;99397.25;295963;33;6402;-74
2023/05/16 00:21:37;;;;;;;377.73;177.10;;;;;;;14.57;100.00;99396.66;292943;33;4205;-74
2023/05/16 00:21:48;;;;;;;381.50;179.20;;;;;;;14.53;100.00;99396.00;290153;33;5569;-74
2023/05/16 00:21:58;;;;;;;380.27;177.40;;;;;;;14.54;100.00;99396.84;289864;33;5892;-74
2023/05/16 00:22:10;;;;;;;377.70;175.03;;;;;;;14.54;100.00;99397.69;296868;33;1260;-74
2023/05/16 00:22:20;;;;;;;374.67;173.50;;;;;;;14.54;100.00;99402.13;293720;33;6580;-74
2023/05/16 00:22:31;;;;;;;380.65;177.95;;;;;;;14.51;100.00;99391.78;290459;33;5120;-74
2023/05/16 00:22:42;;;;;;;380.40;178.70;;;;;;;14.51;100.00;99394.41;288138;34;4288;-75
2023/05/16 00:22:52;;;;;;;379.48;176.45;;;;;;;14.53;100.00;99400.44;286291;34;1699;-75
2023/05/16 00:23:03;;;;;;;378.00;174.60;;;;;;;14.52;100.00;99396.94;284870;34;6744;-75
2023/05/16 00:23:14;;;;;;;379.27;175.50;;;;;;;14.51;100.00;99397.03;285362;34;7876;-74
2023/05/16 00:23:24;;;;;;;376.77;172.50;;;;;;;14.55;100.00;99398.53;285494;34;1186;-74
2023/05/16 00:23:35;;;;;;;375.80;170.87;;;;;;;14.56;100.00;99397.59;288060;34;8616;-74
2023/05/16 00:23:45;;;;;;;370.90;169.67;;;;;;;14.57;100.00;99397.53;288128;33;9295;-74
2023/05/16 00:23:56;;;;;;;372.45;171.48;;;;;;;14.59;100.00;99400.91;288764;34;1409;-74
2023/05/16 00:24:06;;;;;;;373.83;170.80;;;;;;;14.60;100.00;99396.50;287717;34;7671;-74
2023/05/16 00:24:17;;;;;;;375.90;171.50;;;;;;;14.60;100.00;99397.34;284293;34;7694;-74
2023/05/16 00:26:03;;;;;;;365.01;159.90;;;;;;;14.66;100.00;99396.13;2502026;27;20279;-74
2023/05/16 00:26:13;;;;;;;373.13;166.97;;;;;;;14.66;100.00;99401.38;352586;28;1575;-74
2023/05/16 00:26:25;;;;;;;370.55;165.55;;;;;;;14.65;100.00;99402.31;350127;28;1578;-73
2023/05/16 00:26:35;;;;;;;373.27;166.10;;;;;;;14.64;100.00;99398.84;348893;28;921;-74
2023/05/16 00:26:45;;;;;;;372.40;167.73;;;;;;;14.66;100.00;99398.75;348905;28;951;-74
2023/05/16 00:26:56;;;;;;;370.58;168.82;;;;;;;14.64;100.00;99398.00;348851;28;1113;-74
2023/05/16 00:27:06;;;;;;;368.93;171.03;;;;;;;14.66;100.00;99400.53;347767;28;1196;-75
2023/05/16 00:27:17;;;;;;;369.30;169.20;;;;;;;14.66;100.00;99404.03;347425;28;1202;-74
2023/05/16 00:27:27;;;;;;;373.90;171.03;;;;;;;14.66;100.00;99397.91;347186;28;1297;-74
2023/05/16 00:27:38;;;;;;;374.25;171.07;;;;;;;14.64;100.00;99392.72;348769;28;1314;-74
2023/05/16 00:27:48;;;;;;;375.83;172.87;;;;;;;14.63;100.00;99396.31;350132;28;1797;-76
2023/05/16 00:27:59;;;;;;;373.73;171.40;;;;;;;14.63;100.00;99401.56;350683;28;1898;-74
2023/05/16 00:28:09;;;;;;;377.33;172.43;;;;;;;14.63;100.00;99398.94;350211;28;1471;-74
2023/05/16 00:28:19;;;;;;;379.13;171.65;;;;;;;14.61;100.00;99399.03;350180;28;847;-74
2023/05/16 00:28:30;;;;;;;380.27;173.17;;;;;;;14.61;100.00;99398.19;349979;28;1237;-74
2023/05/16 00:28:40;;;;;;;377.77;174.10;;;;;;;14.56;100.00;99401.09;348856;28;753;-74
2023/05/16 00:28:51;;;;;;;377.20;173.97;;;;;;;14.54;100.00;99391.59;347423;28;960;-74
2023/05/16 00:29:01;;;;;;;375.20;171.60;;;;;;;14.54;100.00;99396.84;346192;28;919;-74
2023/05/16 00:29:12;;;;;;;377.37;169.87;;;;;;;14.54;100.00;99396.84;347496;28;847;-74
2023/05/16 00:29:23;;;;;;;380.88;172.45;;;;;;;14.55;100.00;99396.75;348597;28;1456;-74
2023/05/16 00:29:34;;;;;;;383.63;174.00;;;;;;;14.57;100.00;99399.31;347511;28;1458;-74
2023/05/16 00:29:44;;;;;;;380.13;172.25;;;;;;;14.59;100.00;99398.28;347093;28;1447;-75
2023/05/16 00:29:55;;;;;;;377.63;170.70;;;;;;;14.60;100.00;99396.50;346977;28;1075;-74
2023/05/16 00:30:06;;;;;;;378.17;170.52;;;;;;;14.62;100.00;99399.88;346207;28;879;-74
2023/05/16 00:30:17;;;;;;;379.45;172.40;;;;;;;14.63;100.00;99398.94;347262;28;1339;-74
2023/05/16 00:30:27;;;;;;;376.80;173.10;;;;;;;14.64;100.00;99400.63;346731;28;3630;-74
2023/05/16 00:30:37;;;;;;;375.70;173.17;;;;;;;14.66;100.00;99403.16;345041;28;3337;-74
2023/05/16 00:30:48;;;;;;;373.40;170.13;;;;;;;14.65;100.00;99399.69;344348;28;2542;-74
2023/05/16 00:30:58;;;;;;;374.40;171.83;;;;;;;14.66;100.00;99398.75;341832;28;813;-73
2023/05/16 00:31:09;;;;;;;374.60;172.25;;;;;;;14.66;100.00;99404.03;346124;28;2885;-73
2023/05/16 00:31:19;;;;;;;376.53;174.43;;;;;;;14.66;100.00;99403.16;346740;28;1491;-75
2023/05/16 00:31:30;;;;;;;373.17;171.38;;;;;;;14.67;100.00;99397.81;343177;28;948;-75
2023/05/16 00:31:41;;;;;;;376.07;171.93;;;;;;;14.66;100.00;99401.38;342913;28;1402;-74
2023/05/16 00:31:51;;;;;;;374.95;170.32;;;;;;;14.64;100.00;99405.91;347499;28;887;-74
2023/05/16 00:32:02;;;;;;;378.30;173.25;;;;;;;14.66;100.00;99403.16;347254;28;1364;-74
2023/05/16 00:32:12;;;;;;;376.90;173.70;;;;;;;14.67;100.00;99399.59;345952;28;899;-74
2023/05/16 00:32:22;;;;;;;374.45;171.75;;;;;;;14.67;100.00;99403.06;343975;28;1880;-74
2023/05/16 00:32:33;;;;;;;372.20;168.53;;;;;;;14.69;100.00;99398.56;339394;28;1517;-74
2023/05/16 00:32:43;;;;;;;372.10;169.03;;;;;;;14.66;100.00;99397.91;342716;28;1279;-74
2023/05/16 00:32:54;;;;;;;374.52;172.07;;;;;;;14.68;100.00;99404.78;341960;28;1198;-74
2023/05/16 00:33:05;;;;;;;371.13;170.10;;;;;;;14.70;100.00;99408.16;344364;28;1790;-74
2023/05/16 00:33:15;;;;;;;369.43;169.67;;;;;;;14.70;100.00;99402.91;343505;28;817;-74
2023/05/16 00:33:26;;;;;;;370.40;169.27;;;;;;;14.69;100.00;99405.63;341953;28;928;-74
2023/05/16 00:33:36;;;;;;;371.40;170.50;;;;;;;14.68;100.00;99410.03;340682;29;967;-74
2023/05/16 00:33:47;;;;;;;376.73;171.00;;;;;;;14.69;100.00;99406.47;340528;28;1330;-74
2023/05/16 00:33:57;;;;;;;376.45;169.48;;;;;;;14.67;100.00;99402.22;341951;28;1248;-74
2023/05/16 00:34:07;;;;;;;377.70;172.20;;;;;;;14.68;100.00;99409.19;340589;28;1618;-74
2023/05/16 00:34:20;;;;;;;373.80;173.83;;;;;;;14.69;100.00;99405.63;340843;29;794;-74
2023/05/16 00:34:30;;;;;;;367.52;171.88;;;;;;;14.68;100.00;99404.78;337840;28;1885;-75
2023/05/16 00:34:40;;;;;;;366.40;170.13;;;;;;;14.68;100.00;99407.41;338432;28;1886;-74
2023/05/16 00:34:51;;;;;;;366.70;169.80;;;;;;;14.68;100.00;99412.66;343224;28;1154;-74
2023/05/16 00:35:03;;;;;;;371.20;171.50;;;;;;;14.67;100.00;99405.72;344713;28;1474;-75
2023/05/16 00:35:14;;;;;;;370.08;168.75;;;;;;;14.71;100.00;99409.00;343257;28;911;-74
2023/05/16 00:35:24;;;;;;;373.23;170.32;;;;;;;14.70;100.00;99405.53;341018;28;844;-75
2023/05/16 00:35:35;;;;;;;372.10;168.97;;;;;;;14.71;100.00;99409.84;342105;28;1322;-75
2023/05/16 00:35:45;;;;;;;371.33;168.48;;;;;;;14.71;100.00;99409.84;344432;28;1561;-75
2023/05/16 00:35:55;;;;;;;372.30;168.37;;;;;;;14.70;100.00;99404.69;343928;28;1559;-75
2023/05/16 00:36:06;;;;;;;371.42;169.05;;;;;;;14.70;100.00;99408.16;342078;28;734;-75
2023/05/16 00:36:16;;;;;;;370.10;169.47;;;;;;;14.69;100.00;99406.47;338981;29;2412;-75
2023/05/16 00:36:27;;;;;;;368.38;168.13;;;;;;;14.71;100.00;99403.75;336860;29;1676;-75
2023/05/16 00:36:38;;;;;;;369.00;169.13;;;;;;;14.72;100.00;99403.66;339507;28;1383;-75
2023/05/16 00:36:49;;;;;;;370.50;171.20;;;;;;;14.72;100.00;99405.44;340799;29;983;-74
2023/05/16 00:36:59;;;;;;;372.30;173.63;;;;;;;14.72;100.00;99406.28;335384;29;2035;-74
2023/05/16 00:37:10;;;;;;;375.67;174.20;;;;;;;14.72;100.00;99406.28;333442;29;1770;-74
2023/05/16 00:37:20;;;;;;;376.17;173.87;;;;;;;14.72;100.00;99406.28;336797;29;1210;-75
2023/05/16 00:37:31;;;;;;;376.30;171.70;;;;;;;14.70;100.00;99400.25;336620;29;1992;-74
2023/05/16 00:37:41;;;;;;;375.90;171.83;;;;;;;14.70;100.00;99410.78;338221;29;1097;-74
2023/05/16 00:37:52;;;;;;;376.73;173.45;;;;;;;14.68;100.00;99401.28;335569;29;1233;-75
2023/05/16 00:38:02;;;;;;;370.57;172.07;;;;;;;14.63;100.00;99414.75;331808;29;823;-75
2023/05/16 00:38:12;;;;;;;368.15;172.90;;;;;;;14.62;100.00;99400.72;333325;29;2047;-75
2023/05/16 00:38:23;;;;;;;367.77;172.83;;;;;;;14.58;100.00;99393.09;335402;29;2234;-75
2023/05/16 00:38:34;;;;;;;374.80;174.45;;;;;;;14.63;100.00;99401.56;335506;29;1215;-75
2023/05/16 00:38:44;;;;;;;375.05;173.38;;;;;;;14.62;100.00;99406.00;334898;29;2354;-75
2023/05/16 00:38:55;;;;;;;374.10;172.37;;;;;;;14.60;100.00;99407.03;334851;29;2237;-75
2023/05/16 00:39:07;;;;;;;371.95;173.23;;;;;;;14.57;100.00;99405.41;335419;29;1522;-75
2023/05/16 00:39:17;;;;;;;372.33;171.57;;;;;;;14.56;100.00;99400.25;330305;29;977;-75
2023/05/16 00:39:28;;;;;;;375.57;173.57;;;;;;;14.55;100.00;99398.53;328779;30;1977;-75
2023/05/16 00:39:38;;;;;;;375.00;172.13;;;;;;;14.53;100.00;99403.91;326453;30;1419;-75
2023/05/16 00:39:48;;;;;;;375.90;174.83;;;;;;;14.53;100.00;99397.78;324921;30;3966;-75
2023/05/16 00:39:59;;;;;;;376.77;176.17;;;;;;;14.56;100.00;99405.50;322489;30;3812;-75
2023/05/16 00:40:10;;;;;;;375.10;174.90;;;;;;;14.55;100.00;99398.53;323118;30;4317;-75
2023/05/16 00:40:21;;;;;;;378.63;173.48;;;;;;;14.57;100.00;99396.66;326945;30;1034;-75
2023/05/16 00:40:31;;;;;;;373.83;169.73;;;;;;;14.58;100.00;99401.00;321276;30;2910;-75
2023/05/16 00:40:42;;;;;;;374.08;169.27;;;;;;;14.60;100.00;99404.38;318634;30;3358;-75
2023/05/16 00:40:52;;;;;;;369.27;166.73;;;;;;;14.61;100.00;99398.19;317600;30;3410;-74
2023/05/16 00:41:03;;;;;;;372.25;168.57;;;;;;;14.60;100.00;99399.97;318491;31;957;-73
2023/05/16 00:41:13;;;;;;;373.10;169.73;;;;;;;14.65;100.00;99399.69;319832;30;3204;-75
2023/05/16 00:41:25;;;;;;;370.55;171.35;;;;;;;14.64;100.00;99405.91;319331;30;3516;-75
2023/05/16 00:41:35;;;;;;;370.23;171.80;;;;;;;14.64;100.00;99404.09;320690;30;1331;-74
2023/05/16 00:41:45;;;;;;;370.17;169.73;;;;;;;14.64;100.00;99400.63;321075;30;2638;-75
2023/05/16 00:41:56;;;;;;;368.70;168.93;;;;;;;14.64;100.00;99400.63;317574;31;2191;-76
2023/05/16 00:42:07;;;;;;;371.52;169.27;;;;;;;14.62;100.00;99397.25;313943;31;1349;-75
2023/05/16 00:42:20;;;;;;;375.87;173.57;;;;;;;14.64;100.00;99400.63;317895;31;2349;-74
2023/05/16 00:42:30;;;;;;;377.50;171.48;;;;;;;14.63;100.00;99404.19;313366;31;3113;-74
2023/05/16 00:42:41;;;;;;;377.90;173.23;;;;;;;14.63;100.00;99401.56;311547;30;3893;-74
2023/05/16 00:42:51;;;;;;;375.27;172.37;;;;;;;14.62;100.00;99400.72;311844;31;859;-74
2023/05/16 00:43:01;;;;;;;375.55;175.85;;;;;;;14.62;100.00;99395.44;310601;31;4547;-74
2023/05/16 00:43:12;;;;;;;374.53;176.00;;;;;;;14.64;100.00;99403.25;310223;31;4464;-74
2023/05/16 00:43:22;;;;;;;376.80;176.10;;;;;;;14.63;100.00;99402.41;309963;31;3875;-74
2023/05/16 00:43:33;;;;;;;372.23;170.93;;;;;;;14.66;100.00;99400.53;310637;31;1350;-74
2023/05/16 00:43:43;;;;;;;370.73;171.00;;;;;;;14.66;100.00;99408.44;311131;31;4720;-74
2023/05/16 00:43:54;;;;;;;371.95;172.23;;;;;;;14.65;100.00;99404.97;307463;32;3356;-74
2023/05/16 00:44:05;;;;;;;374.40;173.68;;;;;;;14.66;100.00;99400.53;306287;32;1229;-75
2023/05/16 00:44:15;;;;;;;375.23;171.93;;;;;;;14.65;100.00;99399.69;309991;31;3225;-74
2023/05/16 00:44:26;;;;;;;374.97;174.30;;;;;;;14.66;100.00;99406.66;310399;31;3440;-74
2023/05/16 00:44:36;;;;;;;374.88;171.57;;;;;;;14.64;100.00;99398.00;310666;31;851;-74
2023/05/16 00:44:47;;;;;;;374.53;172.03;;;;;;;14.65;100.00;99397.06;306260;32;4775;-75
2023/05/16 00:44:57;;;;;;;374.25;172.40;;;;;;;14.66;100.00;99401.38;302339;32;6150;-74
2023/05/16 00:45:09;;;;;;;375.90;175.30;;;;;;;14.66;100.00;99400.53;298127;32;6185;-74
2023/05/16 00:45:19;;;;;;;375.00;174.77;;;;;;;14.67;100.00;99396.97;298630;33;929;-75
2023/05/16 00:45:30;;;;;;;375.87;173.40;;;;;;;14.66;100.00;99398.75;300540;32;6388;-74
2023/05/16 00:45:40;;;;;;;375.17;171.90;;;;;;;14.67;100.00;99397.81;300404;32;5120;-74
2023/05/16 00:45:50;;;;;;;378.50;173.70;;;;;;;14.67;100.00;99397.81;298919;33;1329;-74
2023/05/16 00:46:01;;;;;;;378.92;175.55;;;;;;;14.64;100.00;99398.84;296962;33;6919;-74
2023/05/16 00:46:11;;;;;;;380.87;176.37;;;;;;;14.62;100.00;99394.59;295107;33;5080;-74
2023/05/16 00:46:22;;;;;;;384.33;176.30;;;;;;;14.60;100.00;99393.84;294023;33;1679;-74
2023/05/16 00:46:32;;;;;;;382.07;174.00;;;;;;;14.61;100.00;99398.19;289833;34;1509;-74
2023/05/16 00:46:43;;;;;;;380.80;175.00;;;;;;;14.58;100.00;99393.09;287853;34;5541;-74
2023/05/16 00:46:53;;;;;;;377.00;175.13;;;;;;;14.60;100.00;99399.13;287604;33;6693;-74
2023/05/16 00:47:04;;;;;;;377.60;177.25;;;;;;;14.59;100.00;99394.78;290147;34;899;-75
2023/05/16 00:47:14;;;;;;;374.37;175.50;;;;;;;14.58;100.00;99393.09;287759;34;8853;-75
2023/05/16 00:47:25;;;;;;;376.63;174.20;;;;;;;14.56;100.00;99390.56;284646;34;8965;-75
2023/05/16 00:47:35;;;;;;;378.83;173.87;;;;;;;14.56;100.00;99393.19;285539;34;998;-74
2023/05/16 00:47:46;;;;;;;383.10;176.18;;;;;;;14.54;100.00;99397.69;281769;34;9916;-74
2023/05/16 00:49:40;;;;;;;363.74;160.05;;;;;;;14.42;100.00;99393.16;2490277;27;20539;-74
2023/05/16 00:49:51;;;;;;;371.98;169.73;;;;;;;14.39;100.00;99388.06;354532;27;895;-75
2023/05/16 00:50:02;;;;;;;369.87;168.60;;;;;;;14.36;100.00;99393.50;351516;28;1686;-75
2023/05/16 00:50:13;;;;;;;369.58;168.85;;;;;;;14.38;100.00;99390.78;350185;28;1279;-74
2023/05/16 00:50:23;;;;;;;370.15;167.95;;;;;;;14.39;100.00;99389.84;348893;28;777;-74
2023/05/16 00:50:35;;;;;;;371.03;169.33;;;;;;;14.41;100.00;99390.59;348135;28;1361;-74
2023/05/16 00:50:46;;;;;;;371.63;168.63;;;;;;;14.41;100.00;99386.22;351850;28;867;-74
2023/05/16 00:50:56;;;;;;;373.55;169.38;;;;;;;14.43;100.00;99394.00;348841;28;1433;-74
2023/05/16 00:51:08;;;;;;;371.57;168.17;;;;;;;14.45;100.00;99389.50;350265;28;1038;-74
2023/05/16 00:51:18;;;;;;;370.15;166.70;;;;;;;14.46;100.00;99391.19;350211;28;968;-74
2023/05/16 00:51:28;;;;;;;368.63;166.23;;;;;;;14.48;100.00;99386.69;350115;28;1352;-74
2023/05/16 00:51:39;;;;;;;369.00;166.75;;;;;;;14.47;100.00;99385.00;353056;28;1209;-74
2023/05/16 00:51:50;;;;;;;371.13;169.60;;;;;;;14.48;100.00;99386.69;350301;28;1755;-74
2023/05/16 00:52:01;;;;;;;371.52;169.73;;;;;;;14.49;100.00;99388.38;348678;28;1333;-74
2023/05/16 00:52:11;;;;;;;371.45;171.23;;;;;;;14.51;100.00;99383.88;350262;28;833;-74
2023/05/16 00:52:22;;;;;;;374.70;171.73;;;;;;;14.52;100.00;99391.69;347395;28;1241;-74
2023/05/16 00:52:32;;;;;;;377.33;169.05;;;;;;;14.53;100.00;99384.63;348067;28;1446;-74
2023/05/16 00:52:43;;;;;;;379.10;169.37;;;;;;;14.54;100.00;99391.59;350214;28;1003;-74
2023/05/16 00:52:53;;;;;;;375.85;166.00;;;;;;;14.57;100.00;99391.41;348825;28;1298;-74
2023/05/16 00:53:03;;;;;;;376.57;171.13;;;;;;;14.58;100.00;99387.84;348768;28;1383;-74
2023/05/16 00:53:14;;;;;;;373.58;172.40;;;;;;;14.57;100.00;99388.78;348520;28;1232;-74
2023/05/16 00:53:24;;;;;;;375.10;175.10;;;;;;;14.58;100.00;99385.19;348298;28;1689;-74
2023/05/16 00:53:35;;;;;;;375.80;172.60;;;;;;;14.59;100.00;99389.53;350058;28;1433;-74
2023/05/16 00:53:46;;;;;;;373.10;168.52;;;;;;;14.58;100.00;99387.84;348827;28;916;-74
2023/05/16 00:53:56;;;;;;;371.23;167.70;;;;;;;14.57;100.00;99384.34;346085;28;1373;-74
2023/05/16 00:54:07;;;;;;;369.02;169.00;;;;;;;14.57;100.00;99380.88;343591;28;817;-75